createdAt,value
2018-05-03T00:01:12.114Z,6.40
2018-05-03T00:03:40.377Z,6.03
2018-05-03T00:06:08.608Z,6.03
2018-05-03T00:08:36.841Z,5.43
2018-05-03T00:11:05.094Z,5.87
2018-05-03T00:13:33.322Z,5.27
2018-05-03T00:16:01.549Z,5.23
2018-05-03T00:18:29.798Z,6.10
2018-05-03T00:20:58.041Z,5.23
2018-05-03T00:23:27.033Z,5.37
2018-05-03T00:25:56.030Z,5.33
2018-05-03T00:28:24.273Z,5.60
2018-05-03T00:30:52.506Z,5.40
2018-05-03T00:33:20.745Z,6.00
2018-05-03T00:35:49.743Z,5.33
2018-05-03T00:38:18.754Z,5.40
2018-05-03T00:40:47.021Z,5.50
2018-05-03T00:43:15.274Z,6.07
2018-05-03T00:45:43.502Z,5.67
2018-05-03T00:48:11.746Z,5.87
2018-05-03T00:50:40.757Z,5.87
2018-05-03T00:53:08.993Z,5.27
2018-05-03T00:55:38.413Z,5.40
2018-05-03T00:58:07.465Z,5.57
2018-05-03T01:00:35.700Z,5.60
2018-05-03T01:03:03.941Z,5.57
2018-05-03T01:05:32.974Z,4.90
2018-05-03T01:08:01.214Z,6.00
2018-05-03T01:10:30.321Z,5.00
2018-05-03T01:12:59.335Z,4.87
2018-05-03T01:15:27.585Z,5.63
2018-05-03T01:17:56.604Z,4.83
2018-05-03T01:20:24.841Z,5.40
2018-05-03T01:22:53.841Z,5.67
2018-05-03T01:25:22.857Z,4.93
2018-05-03T01:27:51.125Z,5.37
2018-05-03T01:30:19.371Z,5.60
2018-05-03T01:32:48.365Z,5.17
2018-05-03T01:35:34.254Z,5.03
2018-05-03T01:38:02.484Z,5.27
2018-05-03T01:40:30.717Z,5.10
2018-05-03T01:43:00.027Z,5.63
2018-05-03T01:45:29.021Z,5.13
2018-05-03T01:47:58.022Z,4.87
2018-05-03T01:50:26.278Z,5.27
2018-05-03T01:52:54.573Z,5.27
2018-05-03T01:55:22.807Z,6.17
2018-05-03T01:57:51.809Z,5.77
2018-05-03T02:00:20.217Z,5.67
2018-05-03T02:02:48.449Z,5.73
2018-05-03T02:05:16.682Z,5.73
2018-05-03T02:07:45.246Z,5.90
2018-05-03T02:10:14.254Z,5.53
2018-05-03T02:12:42.502Z,5.97
2018-05-03T02:15:11.526Z,5.83
2018-05-03T02:17:39.754Z,5.57
2018-05-03T02:20:08.004Z,5.40
2018-05-03T02:22:36.229Z,5.60
2018-05-03T02:25:05.241Z,5.37
2018-05-03T02:27:33.472Z,5.87
2018-05-03T02:30:01.712Z,5.47
2018-05-03T02:32:29.962Z,6.23
2018-05-03T02:34:58.209Z,5.50
2018-05-03T02:37:26.452Z,5.87
2018-05-03T02:39:54.681Z,5.63
2018-05-03T02:42:23.690Z,6.20
2018-05-03T02:44:51.954Z,5.73
2018-05-03T02:47:20.957Z,6.07
2018-05-03T02:49:49.201Z,5.67
2018-05-03T02:52:17.436Z,6.13
2018-05-03T02:54:45.661Z,5.80
2018-05-03T02:57:32.330Z,5.80
2018-05-03T03:00:24.106Z,5.60
2018-05-03T03:03:16.047Z,5.83
2018-05-03T03:06:07.618Z,6.23
2018-05-03T03:16:04.614Z,5.90
2018-05-03T03:18:56.077Z,6.20
2018-05-03T03:21:47.905Z,6.27
2018-05-03T03:24:38.961Z,5.37
2018-05-03T03:27:30.662Z,6.03
2018-05-03T03:30:16.761Z,5.60
2018-05-03T03:33:02.848Z,5.93
2018-05-03T03:36:06.782Z,6.00
2018-05-03T03:38:52.973Z,5.93
2018-05-03T03:41:37.103Z,5.63
2018-05-03T03:44:23.211Z,5.80
2018-05-03T03:46:51.450Z,5.40
2018-05-03T03:49:20.481Z,5.70
2018-05-03T03:51:48.713Z,5.80
2018-05-03T03:54:17.714Z,5.70
2018-05-03T03:56:46.725Z,6.10
2018-05-03T03:59:14.962Z,5.97
2018-05-03T04:01:43.206Z,5.63
2018-05-03T04:04:11.530Z,5.93
2018-05-03T04:06:40.551Z,6.07
2018-05-03T04:09:08.785Z,6.47
2018-05-03T04:11:37.027Z,5.90
2018-05-03T04:14:05.378Z,22.07
2018-05-03T04:16:33.625Z,6.47
2018-05-03T04:22:29.734Z,6.13
2018-05-03T04:25:15.785Z,6.90
2018-05-03T04:27:44.045Z,6.33
2018-05-03T04:30:13.066Z,6.40
2018-05-03T04:32:41.305Z,6.70
2018-05-03T04:35:11.342Z,5.37
2018-05-03T04:37:39.570Z,5.90
2018-05-03T04:40:07.830Z,6.17
2018-05-03T04:42:36.057Z,5.47
2018-05-03T04:45:05.074Z,6.20
2018-05-03T04:47:33.309Z,5.80
2018-05-03T04:50:02.331Z,5.70
2018-05-03T04:52:30.589Z,5.67
2018-05-03T04:54:59.690Z,6.07
2018-05-03T04:57:28.691Z,5.23
2018-05-03T04:59:56.946Z,5.27
2018-05-03T05:02:25.975Z,5.60
2018-05-03T05:04:54.201Z,6.53
2018-05-03T05:07:22.431Z,5.50
2018-05-03T05:09:50.675Z,5.70
2018-05-03T05:12:19.674Z,5.23
2018-05-03T05:14:47.919Z,5.93
2018-05-03T05:17:16.152Z,6.23
2018-05-03T05:19:44.506Z,6.10
2018-05-03T05:22:13.302Z,5.83
2018-05-03T05:24:41.533Z,5.50
2018-05-03T05:27:09.767Z,5.53
2018-05-03T05:29:38.005Z,5.90
2018-05-03T05:32:07.028Z,5.53
2018-05-03T05:34:35.254Z,6.00
2018-05-03T05:37:03.500Z,6.03
2018-05-03T05:39:31.749Z,6.30
2018-05-03T05:41:59.989Z,5.50
2018-05-03T05:44:28.989Z,5.70
2018-05-03T05:46:58.005Z,6.70
2018-05-03T05:49:26.254Z,6.17
2018-05-03T05:51:55.261Z,6.70
2018-05-03T05:54:24.260Z,6.50
2018-05-03T05:56:53.276Z,6.17
2018-05-03T05:59:21.513Z,6.50
2018-05-03T06:01:50.513Z,6.67
2018-05-03T06:04:19.581Z,7.37
2018-05-03T06:06:47.765Z,6.70
2018-05-03T06:09:16.065Z,5.93
2018-05-03T06:11:45.083Z,6.37
2018-05-03T06:14:13.310Z,6.17
2018-05-03T06:16:41.602Z,6.43
2018-05-03T06:19:10.629Z,6.27
2018-05-03T06:21:38.870Z,6.27
2018-05-03T06:24:07.105Z,6.60
2018-05-03T06:26:35.338Z,6.87
2018-05-03T06:29:03.591Z,7.00
2018-05-03T06:31:32.601Z,6.77
2018-05-03T06:34:01.179Z,6.97
2018-05-03T06:36:30.206Z,6.50
2018-05-03T06:38:58.547Z,6.63
2018-05-03T06:41:26.696Z,6.87
2018-05-03T06:43:54.940Z,6.33
2018-05-03T06:46:23.186Z,6.17
2018-05-03T06:48:51.445Z,6.60
2018-05-03T06:51:20.441Z,6.00
2018-05-03T06:53:49.567Z,6.80
2018-05-03T06:56:17.798Z,6.47
2018-05-03T06:58:47.117Z,9.77
2018-05-03T07:01:16.135Z,12.77
2018-05-03T07:03:44.365Z,6.60
2018-05-03T07:06:12.659Z,6.80
2018-05-03T07:08:41.675Z,6.27
2018-05-03T07:11:09.914Z,6.40
2018-05-03T07:13:38.150Z,6.20
2018-05-03T07:16:06.389Z,6.30
2018-05-03T07:18:34.665Z,5.40
2018-05-03T07:21:02.912Z,6.40
2018-05-03T07:23:31.135Z,6.47
2018-05-03T07:25:59.381Z,5.80
2018-05-03T07:28:28.378Z,6.00
2018-05-03T07:30:56.630Z,6.50
2018-05-03T07:33:24.870Z,5.83
2018-05-03T07:35:53.194Z,6.10
2018-05-03T07:38:22.126Z,6.10
2018-05-03T07:40:50.364Z,6.27
2018-05-03T07:43:19.361Z,11.50
2018-05-03T07:45:48.658Z,9.00
2018-05-03T07:48:17.684Z,5.40
2018-05-03T07:50:45.909Z,5.20
2018-05-03T07:53:14.941Z,5.10
2018-05-03T07:55:43.179Z,5.90
2018-05-03T07:58:11.474Z,5.60
2018-05-03T08:00:39.653Z,5.67
2018-05-03T08:03:07.910Z,9.93
2018-05-03T08:05:36.913Z,6.10
2018-05-03T08:08:05.925Z,6.17
2018-05-03T08:10:34.161Z,5.03
2018-05-03T08:13:02.406Z,4.70
2018-05-03T08:15:30.746Z,5.43
2018-05-03T08:17:59.762Z,5.03
2018-05-03T08:20:28.004Z,9.70
2018-05-03T08:22:57.235Z,9.93
2018-05-03T08:25:25.450Z,5.77
2018-05-03T08:27:53.686Z,5.47
2018-05-03T08:30:21.932Z,5.10
2018-05-03T08:32:50.927Z,5.43
2018-05-03T08:35:19.955Z,5.00
2018-05-03T08:37:48.194Z,5.30
2018-05-03T08:40:17.193Z,4.60
2018-05-03T08:42:45.445Z,5.23
2018-05-03T08:45:13.677Z,5.07
2018-05-03T08:47:41.926Z,5.80
2018-05-03T08:50:10.365Z,5.60
2018-05-03T08:52:38.598Z,6.67
2018-05-03T08:55:06.830Z,5.33
2018-05-03T08:57:36.146Z,5.57
2018-05-03T09:00:05.141Z,5.53
2018-05-03T09:02:33.374Z,5.33
2018-05-03T09:05:01.627Z,4.90
2018-05-03T09:07:29.873Z,5.00
2018-05-03T09:09:58.858Z,5.53
2018-05-03T09:15:02.342Z,5.40
2018-05-03T09:17:30.950Z,5.60
2018-05-03T09:19:59.953Z,6.43
2018-05-03T09:22:28.283Z,5.60
2018-05-03T09:24:56.473Z,6.30
2018-05-03T09:27:24.714Z,5.50
2018-05-03T09:29:53.051Z,5.70
2018-05-03T09:32:22.050Z,5.37
2018-05-03T09:34:50.302Z,8.47
2018-05-03T09:37:19.309Z,6.93
2018-05-03T09:39:48.318Z,6.73
2018-05-03T09:42:16.553Z,6.97
2018-05-03T09:44:44.836Z,6.40
2018-05-03T09:47:13.035Z,6.77
2018-05-03T09:49:41.285Z,6.87
2018-05-03T09:52:11.026Z,20.90
2018-05-03T09:54:39.274Z,6.47
2018-05-03T09:57:07.519Z,6.67
2018-05-03T09:59:35.753Z,6.30
2018-05-03T10:02:04.326Z,7.00
2018-05-03T10:04:33.336Z,9.90
2018-05-03T10:07:01.582Z,6.50
2018-05-03T10:09:30.077Z,6.53
2018-05-03T10:11:59.077Z,6.73
2018-05-03T10:14:27.374Z,7.27
2018-05-03T10:16:55.622Z,6.43
2018-05-03T10:19:24.626Z,6.20
2018-05-03T10:21:52.870Z,6.30
2018-05-03T10:24:21.166Z,7.63
2018-05-03T10:26:49.401Z,6.60
2018-05-03T10:29:17.649Z,6.70
2018-05-03T10:31:45.904Z,5.80
2018-05-03T10:34:14.133Z,7.20
2018-05-03T10:36:42.421Z,18.60
2018-05-03T10:39:10.653Z,16.93
2018-05-03T10:41:38.890Z,8.13
2018-05-03T10:44:07.915Z,18.67
2018-05-03T10:46:36.145Z,7.10
2018-05-03T10:49:04.473Z,6.73
2018-05-03T10:51:32.632Z,5.50
2018-05-03T10:54:00.874Z,7.40
2018-05-03T10:56:29.902Z,8.83
2018-05-03T10:58:58.899Z,8.07
2018-05-03T11:01:27.145Z,8.67
2018-05-03T11:03:56.170Z,7.10
2018-05-03T11:06:24.406Z,6.50
2018-05-03T11:08:53.405Z,6.13
2018-05-03T11:11:22.413Z,7.60
2018-05-03T11:13:50.669Z,12.83
2018-05-03T11:16:19.685Z,8.40
2018-05-03T11:18:47.927Z,6.63
2018-05-03T11:21:16.192Z,5.77
2018-05-03T11:23:44.417Z,6.03
2018-05-03T11:26:12.644Z,7.63
2018-05-03T11:28:40.890Z,7.33
2018-05-03T11:31:09.125Z,9.80
2018-05-03T11:33:38.142Z,10.80
2018-05-03T11:36:06.380Z,6.67
2018-05-03T11:38:35.378Z,6.77
2018-05-03T11:41:04.493Z,7.33
2018-05-03T11:43:34.513Z,6.73
2018-05-03T11:46:02.754Z,6.97
2018-05-03T11:48:31.749Z,8.17
2018-05-03T11:51:00.041Z,6.67
2018-05-03T11:53:29.045Z,13.37
2018-05-03T11:55:57.314Z,7.53
2018-05-03T11:58:26.321Z,6.70
2018-05-03T12:00:54.576Z,6.80
2018-05-03T12:03:23.568Z,7.53
2018-05-03T12:05:52.590Z,6.67
2018-05-03T12:08:20.844Z,7.27
2018-05-03T12:10:49.053Z,8.17
2018-05-03T12:13:17.297Z,6.40
2018-05-03T12:15:45.547Z,7.67
2018-05-03T12:18:13.794Z,6.93
2018-05-03T12:20:43.046Z,6.60
2018-05-03T12:23:12.052Z,8.17
2018-05-03T12:25:40.285Z,6.83
2018-05-03T12:28:08.541Z,7.93
2018-05-03T12:30:36.866Z,7.27
2018-05-03T12:33:05.873Z,7.13
2018-05-03T12:35:34.132Z,7.57
2018-05-03T12:38:03.148Z,7.00
2018-05-03T12:40:31.403Z,8.13
2018-05-03T12:43:00.414Z,7.40
2018-05-03T12:45:28.653Z,6.77
2018-05-03T12:47:56.896Z,5.77
2018-05-03T12:50:25.144Z,7.70
2018-05-03T12:52:53.385Z,8.43
2018-05-03T12:55:22.389Z,7.70
2018-05-03T12:57:51.405Z,8.80
2018-05-03T13:00:19.654Z,7.37
2018-05-03T13:02:48.666Z,8.47
2018-05-03T13:05:16.905Z,7.83
2018-05-03T13:07:45.135Z,7.10
2018-05-03T13:10:13.482Z,7.63
2018-05-03T13:12:42.501Z,7.07
2018-05-03T13:15:10.742Z,6.10
2018-05-03T13:17:39.764Z,8.27
2018-05-03T13:20:07.995Z,8.17
2018-05-03T13:22:36.242Z,6.53
2018-05-03T13:25:04.470Z,7.20
2018-05-03T13:27:33.483Z,6.17
2018-05-03T13:30:01.723Z,5.70
2018-05-03T13:32:30.731Z,5.50
2018-05-03T13:34:59.742Z,7.37
2018-05-03T13:37:27.969Z,6.50
2018-05-03T13:39:56.217Z,6.87
2018-05-03T13:42:24.461Z,7.37
2018-05-03T13:44:52.710Z,6.77
2018-05-03T13:47:21.731Z,7.20
2018-05-03T13:49:50.017Z,6.80
2018-05-03T13:52:18.267Z,7.57
2018-05-03T13:54:47.291Z,5.87
2018-05-03T13:57:15.529Z,6.13
2018-05-03T13:59:44.546Z,6.70
2018-05-03T14:02:12.777Z,6.87
2018-05-03T14:04:41.010Z,7.47
2018-05-03T14:07:09.293Z,7.20
2018-05-03T14:09:38.657Z,6.27
2018-05-03T14:12:07.654Z,7.90
2018-05-03T14:14:36.658Z,8.20
2018-05-03T14:17:04.909Z,8.73
2018-05-03T14:19:33.910Z,9.00
2018-05-03T14:22:03.013Z,9.53
2018-05-03T14:24:32.057Z,8.67
2018-05-03T14:27:00.310Z,9.57
2018-05-03T14:29:28.551Z,8.60
2018-05-03T14:31:57.565Z,8.70
2018-05-03T14:34:25.806Z,9.67
2018-05-03T14:36:54.055Z,8.70
2018-05-03T14:39:22.297Z,9.40
2018-05-03T14:41:50.574Z,8.57
2018-05-03T14:44:18.828Z,8.50
2018-05-03T14:46:47.844Z,9.40
2018-05-03T14:49:16.126Z,10.87
2018-05-03T14:51:44.401Z,10.83
2018-05-03T14:54:12.634Z,11.13
2018-05-03T14:56:41.657Z,10.63
2018-05-03T14:59:09.885Z,9.63
2018-05-03T15:01:38.141Z,10.60
2018-05-03T15:04:06.373Z,9.67
2018-05-03T15:06:34.695Z,8.43
2018-05-03T15:09:02.918Z,10.13
2018-05-03T15:11:31.975Z,10.33
2018-05-03T15:14:00.216Z,10.53
2018-05-03T15:16:28.480Z,10.30
2018-05-03T15:18:57.470Z,10.70
2018-05-03T15:21:25.714Z,10.43
2018-05-03T15:23:53.965Z,11.77
2018-05-03T15:26:22.351Z,10.70
2018-05-03T15:28:50.588Z,10.40
2018-05-03T15:31:18.826Z,10.50
2018-05-03T15:33:48.072Z,11.10
2018-05-03T15:36:16.292Z,13.87
2018-05-03T15:38:44.522Z,14.23
2018-05-03T15:41:12.778Z,13.70
2018-05-03T15:43:41.190Z,15.70
2018-05-03T15:46:09.390Z,14.13
2018-05-03T15:48:37.631Z,16.43
2018-05-03T15:51:05.881Z,15.80
2018-05-03T15:53:34.133Z,16.90
2018-05-03T15:56:03.157Z,16.63
2018-05-03T15:58:31.401Z,18.83
2018-05-03T16:01:00.417Z,18.10
2018-05-03T16:03:28.665Z,18.50
2018-05-03T16:05:57.978Z,19.93
2018-05-03T16:08:26.986Z,19.33
2018-05-03T16:10:55.226Z,17.47
2018-05-03T16:13:23.473Z,18.50
2018-05-03T16:15:51.726Z,19.10
2018-05-03T16:18:20.002Z,20.50
2018-05-03T16:20:48.233Z,19.87
2018-05-03T16:23:16.486Z,20.33
2018-05-03T16:25:45.118Z,21.27
2018-05-03T16:28:13.363Z,20.80
2018-05-03T16:30:41.602Z,20.30
2018-05-03T16:33:09.876Z,17.10
2018-05-03T16:35:38.117Z,19.70
2018-05-03T16:38:06.357Z,17.30
2018-05-03T16:40:34.610Z,19.03
2018-05-03T16:43:02.853Z,19.57
2018-05-03T16:45:31.144Z,18.23
2018-05-03T16:48:00.167Z,16.70
2018-05-03T16:50:28.389Z,17.50
2018-05-03T16:52:56.641Z,16.40
2018-05-03T16:55:25.647Z,17.70
2018-05-03T16:57:54.673Z,17.30
2018-05-03T17:00:22.926Z,14.87
2018-05-03T17:02:51.934Z,16.13
2018-05-03T17:05:20.181Z,16.27
2018-05-03T17:07:49.205Z,15.90
2018-05-03T17:10:17.454Z,14.77
2018-05-03T17:12:46.489Z,15.37
2018-05-03T17:15:14.730Z,14.77
2018-05-03T17:17:43.735Z,15.30
2018-05-03T17:20:12.331Z,14.80
2018-05-03T17:22:40.552Z,14.97
2018-05-03T17:25:08.791Z,14.23
2018-05-03T17:27:37.142Z,14.27
2018-05-03T17:30:05.399Z,14.37
2018-05-03T17:32:34.435Z,13.13
2018-05-03T17:35:02.670Z,12.63
2018-05-03T17:37:31.673Z,13.07
2018-05-03T17:39:59.929Z,14.43
2018-05-03T17:42:28.174Z,13.73
2018-05-03T17:44:56.413Z,16.33
2018-05-03T17:47:24.658Z,15.60
2018-05-03T17:49:53.665Z,14.77
2018-05-03T17:52:22.685Z,13.87
2018-05-03T17:54:50.933Z,13.43
2018-05-03T17:57:19.937Z,19.73
2018-05-03T17:59:48.205Z,14.70
2018-05-03T18:02:16.454Z,16.87
2018-05-03T18:04:45.028Z,14.13
2018-05-03T18:07:13.206Z,15.93
2018-05-03T18:09:41.443Z,13.93
2018-05-03T18:12:09.790Z,14.17
2018-05-03T18:14:38.034Z,13.60
2018-05-03T18:17:06.549Z,14.80
2018-05-03T18:19:34.934Z,14.10
2018-05-03T18:22:03.174Z,12.83
2018-05-03T18:24:32.435Z,12.57
2018-05-03T18:27:00.782Z,13.03
2018-05-03T18:29:29.026Z,12.60
2018-05-03T18:31:57.278Z,11.70
2018-05-03T18:34:25.530Z,11.80
2018-05-03T18:36:53.806Z,11.03
2018-05-03T18:39:22.034Z,11.17
2018-05-03T18:41:51.041Z,10.50
2018-05-03T18:44:20.086Z,11.60
2018-05-03T18:46:48.413Z,11.07
2018-05-03T18:49:17.461Z,10.80
2018-05-03T18:51:45.691Z,10.97
2018-05-03T18:54:14.738Z,9.23
2018-05-03T18:56:43.003Z,9.50
2018-05-03T18:59:11.247Z,10.20
2018-05-03T19:01:39.522Z,8.77
2018-05-03T19:04:07.818Z,10.17
2018-05-03T19:06:36.082Z,10.00
2018-05-03T19:09:04.321Z,8.90
2018-05-03T19:11:33.560Z,10.07
2018-05-03T19:14:01.794Z,10.43
2018-05-03T19:16:30.045Z,10.47
2018-05-03T19:18:58.289Z,15.90
2018-05-03T19:21:26.564Z,18.83
2018-05-03T19:23:54.813Z,10.63
2018-05-03T19:26:23.062Z,10.13
2018-05-03T19:28:51.310Z,10.37
2018-05-03T19:31:19.555Z,10.77
2018-05-03T19:33:47.814Z,10.77
2018-05-03T19:36:16.837Z,10.07
2018-05-03T19:38:45.082Z,10.53
2018-05-03T19:41:14.087Z,9.10
2018-05-03T19:43:42.333Z,10.17
2018-05-03T19:46:11.349Z,9.80
2018-05-03T19:48:39.597Z,10.20
2018-05-03T19:51:08.642Z,10.83
2018-05-03T19:53:36.885Z,10.83
2018-05-03T19:56:05.892Z,9.67
2018-05-03T19:58:34.151Z,10.17
2018-05-03T20:01:03.258Z,9.33
2018-05-03T20:03:32.264Z,9.80
2018-05-03T20:06:00.510Z,9.67
2018-05-03T20:08:29.530Z,9.93
2018-05-03T20:10:57.774Z,9.80
2018-05-03T20:13:26.786Z,10.67
2018-05-03T20:15:55.815Z,9.00
2018-05-03T20:18:24.061Z,9.23
2018-05-03T20:20:52.339Z,10.30
2018-05-03T20:23:20.590Z,10.63
2018-05-03T20:25:49.602Z,18.80
2018-05-03T20:28:17.877Z,18.27
2018-05-03T20:30:46.240Z,11.60
2018-05-03T20:33:15.925Z,10.57
2018-05-03T20:35:44.168Z,10.77
2018-05-03T20:38:12.413Z,10.63
2018-05-03T20:40:41.495Z,11.03
2018-05-03T20:43:10.531Z,10.67
2018-05-03T20:45:38.790Z,11.43
2018-05-03T20:48:07.030Z,11.10
2018-05-03T20:50:35.294Z,10.23
2018-05-03T20:53:03.533Z,11.50
2018-05-03T20:55:31.782Z,12.33
2018-05-03T20:58:00.033Z,11.77
2018-05-03T21:00:29.793Z,12.20
2018-05-03T21:02:58.038Z,12.33
2018-05-03T21:05:27.081Z,14.97
2018-05-03T21:07:56.079Z,14.33
2018-05-03T21:10:24.317Z,12.03
2018-05-03T21:12:52.573Z,12.90
2018-05-03T21:15:21.599Z,12.53
2018-05-03T21:17:49.850Z,12.93
2018-05-03T21:20:18.153Z,11.70
2018-05-03T21:22:46.394Z,13.40
2018-05-03T21:25:15.405Z,12.97
2018-05-03T21:27:43.641Z,13.23
2018-05-03T21:30:11.950Z,12.00
2018-05-03T21:32:40.201Z,12.83
2018-05-03T21:35:08.462Z,12.50
2018-05-03T21:37:36.705Z,13.63
2018-05-03T21:40:04.945Z,13.00
2018-05-03T21:42:33.970Z,12.60
2018-05-03T21:45:02.243Z,12.93
2018-05-03T21:47:30.482Z,12.93
2018-05-03T21:49:59.486Z,13.57
2018-05-03T21:52:27.788Z,13.60
2018-05-03T21:54:56.758Z,12.17
2018-05-03T21:57:25.016Z,13.13
2018-05-03T21:59:54.030Z,15.47
2018-05-03T22:02:22.282Z,26.17
2018-05-03T22:04:50.540Z,15.40
2018-05-03T22:07:18.779Z,14.47
2018-05-03T22:09:47.030Z,13.07
2018-05-03T22:12:15.292Z,11.87
2018-05-03T22:14:44.296Z,13.20
2018-05-03T22:17:13.328Z,14.63
2018-05-03T22:19:41.561Z,13.53
2018-05-03T22:22:10.574Z,12.87
2018-05-03T22:24:38.826Z,14.10
2018-05-03T22:27:07.834Z,11.93
2018-05-03T22:29:36.095Z,14.17
2018-05-03T22:32:05.118Z,14.27
2018-05-03T22:34:33.357Z,13.60
2018-05-03T22:37:02.369Z,13.23
2018-05-03T22:39:30.623Z,14.03
2018-05-03T22:41:59.631Z,13.87
2018-05-03T22:44:28.654Z,14.00
2018-05-03T22:46:56.890Z,12.47
2018-05-03T22:49:26.185Z,13.83
2018-05-03T22:51:54.428Z,13.93
2018-05-03T22:54:22.657Z,13.53
2018-05-03T22:56:50.918Z,12.43
2018-05-03T22:59:19.918Z,12.57
2018-05-03T23:01:48.941Z,13.10
2018-05-03T23:04:17.173Z,12.77
2018-05-03T23:06:46.193Z,12.57
2018-05-03T23:09:14.436Z,11.83
2018-05-03T23:11:42.693Z,12.13
2018-05-03T23:14:10.937Z,11.50
2018-05-03T23:16:39.177Z,11.63
2018-05-03T23:19:08.437Z,11.57
2018-05-03T23:21:36.680Z,12.13
2018-05-03T23:24:04.913Z,11.20
2018-05-03T23:26:33.166Z,11.67
2018-05-03T23:29:01.414Z,11.37
2018-05-03T23:31:29.669Z,10.87
2018-05-03T23:33:57.910Z,11.20
2018-05-03T23:36:26.151Z,10.13
2018-05-03T23:38:54.398Z,10.50
2018-05-03T23:41:22.633Z,10.63
2018-05-03T23:43:50.883Z,11.50
2018-05-03T23:46:19.134Z,9.83
2018-05-03T23:48:47.374Z,10.30
2018-05-03T23:51:16.386Z,11.47
2018-05-03T23:53:44.621Z,9.93
2018-05-03T23:56:12.878Z,10.40
2018-05-03T23:58:41.131Z,9.77
